Аэропорт
Магнитогорск (USCM)

 USCM / MQF
ЗЦ Екатеринбург
Екатеринбург (USSS)
Челябинск (USCC)
 53.39310, 58.75570  / 1430 ft

 USCM 240530Z 20008MPS 9999 SCT040 18/01 Q1002 R18/090065 NOSIG RMK QFE715

показать схемы
Название сценария Тип сценария Flight Simulator 9 Flight Simulator X Prepar3D v2 Prepar3D v3 Prepar3D v4 xPlane
Магнитогорск бесплатный


2019 © VATRUS division (Privacy Policy)